createdAt,value
2018-07-22T00:03:36.506Z,100714.00
2018-07-22T00:08:29.711Z,100720.00
2018-07-22T00:13:22.917Z,100722.00
2018-07-22T00:18:16.165Z,100724.00
2018-07-22T00:23:09.425Z,100731.00
2018-07-22T00:28:02.634Z,100735.00
2018-07-22T00:32:55.907Z,100738.00
2018-07-22T00:37:49.146Z,100737.00
2018-07-22T00:42:42.377Z,100738.00
2018-07-22T00:47:35.584Z,100751.00
2018-07-22T00:52:28.842Z,100747.00
2018-07-22T00:57:22.053Z,100754.00
2018-07-22T01:02:15.272Z,100751.00
2018-07-22T01:07:08.513Z,100754.00
2018-07-22T01:12:01.749Z,100748.00
2018-07-22T01:16:54.975Z,100748.00
2018-07-22T01:21:48.267Z,100744.00
2018-07-22T01:26:41.488Z,100739.00
2018-07-22T01:31:34.729Z,100746.00
2018-07-22T01:36:27.935Z,100752.00
2018-07-22T01:41:21.209Z,100758.00
2018-07-22T01:46:14.545Z,100759.00
2018-07-22T01:51:08.203Z,100762.00
2018-07-22T01:56:01.435Z,100765.00
2018-07-22T02:00:54.707Z,100767.00
2018-07-22T02:05:47.969Z,100771.00
2018-07-22T02:10:41.236Z,100772.00
2018-07-22T02:15:34.464Z,100783.00
2018-07-22T02:20:27.633Z,100781.00
2018-07-22T02:25:20.776Z,100786.00
2018-07-22T02:30:14.086Z,100787.00
2018-07-22T02:35:07.209Z,100789.00
2018-07-22T02:40:00.421Z,100794.00
2018-07-22T02:44:53.579Z,100801.00
2018-07-22T02:49:46.792Z,100807.00
2018-07-22T02:54:39.994Z,100806.00
2018-07-22T02:59:33.238Z,100806.00
2018-07-22T03:04:26.460Z,100817.00
2018-07-22T03:09:19.819Z,100816.00
2018-07-22T03:14:13.074Z,100811.00
2018-07-22T03:19:07.093Z,100820.00
2018-07-22T03:24:00.327Z,100821.00
2018-07-22T03:28:53.897Z,100818.00
2018-07-22T03:33:47.002Z,100829.00
2018-07-22T03:38:40.247Z,100836.00
2018-07-22T03:43:33.397Z,100843.00
2018-07-22T03:48:26.630Z,100841.00
2018-07-22T03:53:20.230Z,100843.00
2018-07-22T03:58:13.403Z,100848.00
2018-07-22T04:03:07.087Z,100853.00
2018-07-22T04:08:00.314Z,100854.00
2018-07-22T04:12:53.545Z,100853.00
2018-07-22T04:17:46.863Z,100850.00
2018-07-22T04:22:40.096Z,100848.00
2018-07-22T04:27:33.305Z,100853.00
2018-07-22T04:32:26.539Z,100854.00
2018-07-22T04:37:19.778Z,100857.00
2018-07-22T04:42:13.024Z,100862.00
2018-07-22T04:47:06.285Z,100870.00
2018-07-22T04:51:59.508Z,100876.00
2018-07-22T04:56:52.721Z,100879.00
2018-07-22T05:01:45.971Z,100878.00
2018-07-22T05:06:39.260Z,100887.00
2018-07-22T05:11:32.498Z,100888.00
2018-07-22T05:16:25.721Z,100888.00
2018-07-22T05:21:18.977Z,100892.00
2018-07-22T05:26:12.208Z,100895.00
2018-07-22T05:31:05.485Z,100898.00
2018-07-22T05:35:58.786Z,100902.00
2018-07-22T05:40:52.073Z,100907.00
2018-07-22T05:45:45.394Z,100903.00
2018-07-22T05:50:38.557Z,100901.00
2018-07-22T05:55:31.694Z,100897.00
2018-07-22T06:00:24.930Z,100901.00
2018-07-22T06:05:18.155Z,100907.00
2018-07-22T06:10:11.459Z,100916.00
2018-07-22T06:15:06.262Z,100913.00
2018-07-22T06:19:59.518Z,100915.00
2018-07-22T06:24:52.802Z,100917.00
2018-07-22T06:29:46.117Z,100909.00
2018-07-22T06:34:39.459Z,100896.00
2018-07-22T06:39:33.624Z,100897.00
2018-07-22T06:44:27.251Z,100904.00
2018-07-22T06:49:20.872Z,100908.00
2018-07-22T06:54:14.154Z,100918.00
2018-07-22T06:59:07.429Z,100927.00
2018-07-22T07:04:00.791Z,100916.00
2018-07-22T07:08:54.027Z,100925.00
2018-07-22T07:13:47.388Z,100929.00
2018-07-22T07:18:41.059Z,100933.00
2018-07-22T07:23:34.263Z,100932.00
2018-07-22T07:28:27.417Z,100928.00
2018-07-22T07:33:20.659Z,100924.00
2018-07-22T07:38:13.899Z,100931.00
2018-07-22T07:43:07.266Z,100935.00
2018-07-22T07:48:00.470Z,100935.00
2018-07-22T07:52:53.672Z,100929.00
2018-07-22T07:57:46.857Z,100924.00
2018-07-22T08:02:40.097Z,100926.00
2018-07-22T08:07:33.304Z,100922.00
2018-07-22T08:12:26.563Z,100923.00
2018-07-22T08:17:19.846Z,100925.00
2018-07-22T08:22:13.101Z,100921.00
2018-07-22T08:27:06.407Z,100925.00
2018-07-22T08:32:00.465Z,100922.00
2018-07-22T08:36:53.747Z,100920.00
2018-07-22T08:41:47.517Z,100917.00
2018-07-22T08:46:45.167Z,100928.00
2018-07-22T08:51:38.364Z,100918.00
2018-07-22T08:56:32.195Z,100918.00
2018-07-22T09:01:29.980Z,100923.00
2018-07-22T09:06:24.099Z,100923.00
2018-07-22T09:11:17.224Z,100915.00
2018-07-22T09:16:10.463Z,100925.00
2018-07-22T09:21:03.723Z,100930.00
2018-07-22T09:25:56.951Z,100923.00
2018-07-22T09:31:02.775Z,100927.00
2018-07-22T09:36:11.045Z,100921.00
2018-07-22T09:41:27.557Z,100922.00
2018-07-22T09:52:00.200Z,100932.00
2018-07-22T09:56:56.933Z,100931.00
2018-07-22T10:01:53.509Z,100923.00
2018-07-22T10:06:49.948Z,100924.00
2018-07-22T10:11:44.090Z,100916.00
2018-07-22T10:16:37.461Z,100925.00
2018-07-22T10:21:30.791Z,100925.00
2018-07-22T10:26:24.075Z,100921.00
2018-07-22T10:31:17.353Z,100926.00
2018-07-22T10:36:10.584Z,100921.00
2018-07-22T10:41:03.860Z,100925.00
2018-07-22T10:45:57.113Z,100916.00
2018-07-22T10:50:50.325Z,100912.00
2018-07-22T10:55:43.615Z,100917.00
2018-07-22T11:00:36.891Z,100913.00
2018-07-22T11:05:30.150Z,100901.00
2018-07-22T11:10:23.381Z,100903.00
2018-07-22T11:15:16.590Z,100908.00
2018-07-22T11:20:09.863Z,100903.00
2018-07-22T11:25:03.130Z,100897.00
2018-07-22T11:29:56.366Z,100900.00
2018-07-22T11:34:50.709Z,100906.00
2018-07-22T11:39:44.032Z,100898.00
2018-07-22T11:44:41.003Z,100893.00
2018-07-22T11:49:34.281Z,100887.00
2018-07-22T11:54:27.497Z,100881.00
2018-07-22T11:59:22.077Z,100878.00
2018-07-22T12:04:15.520Z,100875.00
2018-07-22T12:09:10.871Z,100865.00
2018-07-22T12:14:04.193Z,100862.00
2018-07-22T12:18:57.467Z,100865.00
2018-07-22T12:23:50.715Z,100864.00
2018-07-22T12:28:44.004Z,100850.00
2018-07-22T12:33:37.245Z,100845.00
2018-07-22T12:38:37.274Z,100846.00
2018-07-22T12:43:33.473Z,100843.00
2018-07-22T12:48:26.712Z,100841.00
2018-07-22T12:53:24.951Z,100837.00
2018-07-22T12:58:18.247Z,100836.00
2018-07-22T13:03:11.713Z,100837.00
2018-07-22T13:08:19.456Z,100836.00
2018-07-22T13:13:40.612Z,100834.00
2018-07-22T13:18:33.985Z,100824.00
2018-07-22T13:23:28.191Z,100834.00
2018-07-22T13:28:22.183Z,100837.00
2018-07-22T13:33:16.582Z,100831.00
2018-07-22T13:38:09.872Z,100827.00
2018-07-22T13:43:03.107Z,100833.00
2018-07-22T13:47:56.418Z,100832.00
2018-07-22T13:52:49.657Z,100828.00
2018-07-22T13:57:42.869Z,100829.00
2018-07-22T14:02:36.089Z,100829.00
2018-07-22T14:07:29.347Z,100823.00
2018-07-22T14:12:22.591Z,100829.00
2018-07-22T14:17:15.889Z,100833.00
2018-07-22T14:22:09.136Z,100828.00
2018-07-22T14:27:02.355Z,100826.00
2018-07-22T14:31:55.601Z,100821.00
2018-07-22T14:36:48.839Z,100810.00
2018-07-22T14:41:42.144Z,100812.00
2018-07-22T14:46:35.691Z,100818.00
2018-07-22T14:51:28.853Z,100807.00
2018-07-22T14:56:23.082Z,100810.00
2018-07-22T15:01:16.336Z,100806.00
2018-07-22T15:06:09.526Z,100808.00
2018-07-22T15:11:03.080Z,100805.00
2018-07-22T15:15:56.354Z,100812.00
2018-07-22T15:20:49.568Z,100810.00
2018-07-22T15:25:42.796Z,100813.00
2018-07-22T15:30:36.065Z,100811.00
2018-07-22T15:35:29.299Z,100805.00
2018-07-22T15:40:22.525Z,100817.00
2018-07-22T15:45:15.792Z,100814.00
2018-07-22T15:50:09.013Z,100817.00
2018-07-22T15:55:02.282Z,100812.00
2018-07-22T15:59:55.489Z,100831.00
2018-07-22T16:04:48.749Z,100830.00
2018-07-22T16:09:41.996Z,100834.00
2018-07-22T16:14:35.138Z,100833.00
2018-07-22T16:19:28.396Z,100837.00
2018-07-22T16:24:21.630Z,100830.00
2018-07-22T16:29:14.874Z,100832.00
2018-07-22T16:34:08.075Z,100829.00
2018-07-22T16:39:01.322Z,100831.00
2018-07-22T16:43:54.449Z,100837.00
2018-07-22T16:48:47.656Z,100833.00
2018-07-22T16:53:41.626Z,100828.00
2018-07-22T16:58:34.849Z,100828.00
2018-07-22T17:03:28.084Z,100833.00
2018-07-22T17:08:21.299Z,100835.00
2018-07-22T17:13:14.529Z,100831.00
2018-07-22T17:18:07.725Z,100838.00
2018-07-22T17:23:00.836Z,100836.00
2018-07-22T17:27:54.025Z,100846.00
2018-07-22T17:32:47.245Z,100853.00
2018-07-22T17:37:40.382Z,100861.00
2018-07-22T17:42:34.605Z,100859.00
2018-07-22T17:47:28.916Z,100859.00
2018-07-22T17:52:22.046Z,100864.00
2018-07-22T17:57:16.055Z,100864.00
2018-07-22T18:02:09.705Z,100864.00
2018-07-22T18:07:02.947Z,100872.00
2018-07-22T18:11:56.037Z,100877.00
2018-07-22T18:16:49.269Z,100874.00
2018-07-22T18:21:42.495Z,100873.00
2018-07-22T18:26:35.745Z,100875.00
2018-07-22T18:31:28.999Z,100885.00
2018-07-22T18:36:22.127Z,100884.00
2018-07-22T18:41:15.365Z,100885.00
2018-07-22T18:46:08.602Z,100890.00
2018-07-22T18:51:02.231Z,100887.00
2018-07-22T18:55:55.360Z,100888.00
2018-07-22T19:00:48.584Z,100891.00
2018-07-22T19:05:41.885Z,100897.00
2018-07-22T19:10:35.123Z,100899.00
2018-07-22T19:15:28.361Z,100900.00
2018-07-22T19:20:21.579Z,100907.00
2018-07-22T19:25:14.871Z,100902.00
2018-07-22T19:30:08.101Z,100913.00
2018-07-22T19:35:01.218Z,100917.00
2018-07-22T19:39:54.433Z,100923.00
2018-07-22T19:44:47.629Z,100929.00
2018-07-22T19:49:40.908Z,100932.00
2018-07-22T19:54:33.996Z,100943.00
2018-07-22T19:59:27.989Z,100942.00
2018-07-22T20:04:21.279Z,100951.00
2018-07-22T20:09:14.538Z,100951.00
2018-07-22T20:14:07.796Z,100954.00
2018-07-22T20:19:01.126Z,100962.00
2018-07-22T20:23:54.388Z,100968.00
2018-07-22T20:28:47.730Z,100972.00
2018-07-22T20:33:40.944Z,100984.00
2018-07-22T20:38:34.372Z,100987.00
2018-07-22T20:43:27.563Z,100988.00
2018-07-22T20:48:20.795Z,100991.00
2018-07-22T20:53:14.110Z,100994.00
2018-07-22T20:58:08.110Z,100999.00
2018-07-22T21:03:41.502Z,101005.00
2018-07-22T21:08:34.706Z,101014.00
2018-07-22T21:13:28.065Z,101016.00
2018-07-22T21:18:21.348Z,101023.00
2018-07-22T21:23:14.626Z,101029.00
2018-07-22T21:28:07.985Z,101026.00
2018-07-22T21:33:01.410Z,101033.00
2018-07-22T21:37:54.574Z,101036.00
2018-07-22T21:42:47.893Z,101045.00
2018-07-22T21:47:41.130Z,101046.00
2018-07-22T21:52:34.322Z,101046.00
2018-07-22T21:57:27.663Z,101061.00
2018-07-22T22:02:21.084Z,101062.00
2018-07-22T22:07:14.374Z,101065.00
2018-07-22T22:12:08.293Z,101061.00
2018-07-22T22:17:01.859Z,101068.00
2018-07-22T22:21:54.975Z,101066.00
2018-07-22T22:26:48.169Z,101069.00
2018-07-22T22:31:42.042Z,101068.00
2018-07-22T22:36:35.751Z,101072.00
2018-07-22T22:41:29.075Z,101073.00
2018-07-22T22:46:22.322Z,101073.00
2018-07-22T22:51:15.437Z,101071.00
2018-07-22T22:56:08.669Z,101083.00
2018-07-22T23:01:01.861Z,101083.00
2018-07-22T23:05:55.084Z,101084.00
2018-07-22T23:10:48.375Z,101082.00
2018-07-22T23:15:42.125Z,101078.00
2018-07-22T23:20:35.371Z,101077.00
2018-07-22T23:25:28.633Z,101081.00
2018-07-22T23:30:21.827Z,101085.00
2018-07-22T23:35:15.223Z,101092.00
2018-07-22T23:40:08.439Z,101091.00
2018-07-22T23:45:01.659Z,101093.00
2018-07-22T23:49:54.878Z,101092.00
2018-07-22T23:54:48.093Z,101094.00
2018-07-22T23:59:41.371Z,101095.00
